Terminal Aerodrome Forecast
Issued by NWS

Home | Current Version | Previous Version | Graphics & Text | Print | Product List | Glossary On
Versions: 1 2 3 4 5 6 7 8 9 10 11 12 13 14 15 16 17 18 19 20 21
650
FTUS43 KGRB 231740
TAFCWA
TAF
KCWA 231740Z 2318/2418 08009KT P6SM BKN060
     FM240900 11005KT P6SM BKN035
     FM241400 11005KT P6SM OVC010
     FM241700 14008KT P6SM BKN030=

USA.gov is the U.S. government's official web portal to all federal, state and local government web resources and services.